Time;durP1;ratioP1;P1;durP2;ratioP2;P2;SDS_P1;SDS_P2;PMS_P1;PMS_P2;Temp;Humidity;BMP_temperature;BMP_pressure;BME280_temperature;BME280_humidity;BME280_pressure;Samples;Min_cycle;Max_cycle;Signal;HPM_P1;HPM_P2
2022/06/18 00:00:58;;;;;;;3.63;2.00;;;;;;;18.50;50.63;100341.81;10471236;28;20131;-62
2022/06/18 00:05:59;;;;;;;2.83;1.90;;;;;;;18.45;50.94;100347.50;10471696;28;20053;-62
2022/06/18 00:16:31;;;;;;;3.55;1.80;;;;;;;18.20;51.48;100336.50;10454573;28;20053;-61
2022/06/18 00:21:33;;;;;;;2.50;1.67;;;;;;;18.22;51.34;100334.56;10471194;28;20055;-63
2022/06/18 00:26:35;;;;;;;4.32;1.90;;;;;;;18.18;51.50;100333.13;10448871;28;20294;-62
2022/06/18 00:31:36;;;;;;;5.15;2.10;;;;;;;18.08;51.59;100338.31;10452005;28;20455;-61
2022/06/18 00:36:42;;;;;;;5.28;2.35;;;;;;;17.69;52.51;100345.13;10470231;28;20063;-61
2022/06/18 00:41:51;;;;;;;3.88;2.03;;;;;;;17.58;52.71;100345.19;10470002;28;20057;-61
2022/06/18 00:47:19;;;;;;;6.00;2.20;;;;;;;17.55;52.74;100345.44;10469500;28;20055;-63
2022/06/18 00:52:41;;;;;;;4.97;1.90;;;;;;;17.50;52.80;100337.06;10470076;28;20762;-61
2022/06/18 00:57:52;;;;;;;3.95;1.88;;;;;;;17.61;52.56;100328.22;10468553;28;20124;-62
2022/06/18 01:02:53;;;;;;;7.82;2.17;;;;;;;17.39;52.57;100329.16;10468656;28;20120;-63
2022/06/18 01:08:01;;;;;;;4.38;2.00;;;;;;;17.33;53.45;100328.78;10468168;28;20092;-63
2022/06/18 01:13:10;;;;;;;8.25;2.10;;;;;;;17.25;54.18;100326.75;10468957;28;20052;-63
2022/06/18 01:18:13;;;;;;;6.00;2.20;;;;;;;17.21;53.67;100332.41;10468498;28;20132;-63
2022/06/18 01:23:25;;;;;;;4.55;1.90;;;;;;;17.19;53.78;100329.91;10467711;28;20144;-63
2022/06/18 01:28:27;;;;;;;4.85;1.95;;;;;;;17.21;53.42;100324.47;10467395;28;20048;-63
2022/06/18 01:33:32;;;;;;;4.70;1.80;;;;;;;17.17;53.39;100323.03;10468604;28;20055;-63
2022/06/18 01:38:37;;;;;;;3.45;1.80;;;;;;;17.21;53.12;100322.69;10467479;28;20576;-63
2022/06/18 01:43:39;;;;;;;5.32;2.13;;;;;;;17.14;53.43;100324.13;10467895;28;20424;-63
2022/06/18 01:48:43;;;;;;;4.15;1.85;;;;;;;17.13;53.51;100321.63;10466704;28;20052;-64
2022/06/18 01:53:49;;;;;;;5.78;2.08;;;;;;;16.98;53.69;100321.88;10466382;28;20088;-63
2022/06/18 01:58:57;;;;;;;4.15;2.20;;;;;;;16.87;53.95;100315.78;10467580;28;20523;-63
2022/06/18 02:04:01;;;;;;;3.67;1.90;;;;;;;16.78;53.94;100311.22;10472256;28;20127;-63
2022/06/18 02:09:11;;;;;;;5.05;2.00;;;;;;;16.78;54.39;100311.22;10449377;28;20579;-63
2022/06/18 02:14:14;;;;;;;3.70;2.00;;;;;;;16.56;54.61;100312.09;10473769;28;20143;-63
2022/06/18 02:19:18;;;;;;;3.60;2.00;;;;;;;16.51;54.72;100300.22;10472983;28;20052;-63
2022/06/18 02:24:19;;;;;;;3.42;2.10;;;;;;;16.46;55.09;100302.38;10473705;28;20388;-63
2022/06/18 02:29:29;;;;;;;3.30;2.10;;;;;;;16.44;54.93;100294.56;10473498;28;20511;-63
2022/06/18 02:34:31;;;;;;;4.40;1.90;;;;;;;16.41;54.90;100284.19;10474282;28;20132;-64
2022/06/18 02:39:54;;;;;;;3.88;2.00;;;;;;;16.31;55.64;100290.31;10472960;28;20114;-63
2022/06/18 02:44:56;;;;;;;3.33;2.15;;;;;;;16.26;55.37;100288.06;10473208;28;20060;-63
2022/06/18 02:50:04;;;;;;;5.47;2.10;;;;;;;16.31;55.54;100287.66;10473045;28;20131;-63
2022/06/18 02:55:17;;;;;;;3.90;2.53;;;;;;;16.22;56.08;100289.25;10457922;28;20191;-63
2022/06/18 03:00:19;;;;;;;4.55;2.08;;;;;;;16.11;56.07;100279.50;10462571;28;20128;-63
2022/06/18 03:05:26;;;;;;;142.40;88.95;;;;;;;16.19;55.93;100285.03;10468555;28;20469;-63
2022/06/18 03:15:50;;;;;;;11.75;6.55;;;;;;;16.06;56.11;100289.56;10465782;28;20133;-63
2022/06/18 03:21:09;;;;;;;7.30;4.30;;;;;;;16.09;56.17;100281.44;10465879;28;20045;-63
2022/06/18 03:26:12;;;;;;;10.88;3.10;;;;;;;16.15;56.00;100286.22;10465633;28;20171;-63
2022/06/18 03:31:14;;;;;;;4.97;2.85;;;;;;;16.15;55.89;100286.22;10438840;28;20484;-63
2022/06/18 03:36:18;;;;;;;5.32;2.70;;;;;;;16.15;55.75;100282.75;10473489;28;20040;-63
2022/06/18 03:41:21;;;;;;;4.03;2.40;;;;;;;16.22;55.56;100282.16;10470909;28;20090;-63
2022/06/18 03:46:23;;;;;;;4.22;2.25;;;;;;;16.40;55.27;100284.31;10472717;28;20127;-63
2022/06/18 03:51:26;;;;;;;3.70;2.38;;;;;;;16.56;54.52;100298.88;10472681;28;20052;-63
2022/06/18 03:56:31;;;;;;;3.67;2.40;;;;;;;16.78;54.50;100285.66;10472494;28;20451;-63
2022/06/18 04:01:33;;;;;;;4.30;2.58;;;;;;;16.96;53.88;100283.34;10472111;28;20049;-63
2022/06/18 04:06:38;;;;;;;5.75;2.58;;;;;;;17.28;53.54;100286.03;10452864;28;20598;-64
2022/06/18 04:11:39;;;;;;;6.55;2.40;;;;;;;17.91;52.16;100278.06;10470042;28;20501;-63
2022/06/18 04:16:41;;;;;;;3.47;2.35;;;;;;;18.67;50.20;100282.09;10458375;28;20047;-63
2022/06/18 04:21:43;;;;;;;3.97;2.10;;;;;;;19.57;48.38;100279.16;10455074;28;20282;-62
2022/06/18 04:26:45;;;;;;;4.68;2.22;;;;;;;20.16;46.74;100289.56;10470480;28;20123;-62
2022/06/18 04:31:47;;;;;;;10.93;2.40;;;;;;;20.80;45.42;100289.63;10470888;28;20155;-62
2022/06/18 04:36:49;;;;;;;3.00;1.85;;;;;;;21.53;43.83;100269.97;10469422;28;20048;-63
2022/06/18 04:41:51;;;;;;;4.47;2.05;;;;;;;22.12;42.54;100277.28;10469363;28;20048;-62
2022/06/18 04:46:52;;;;;;;3.88;2.10;;;;;;;22.90;41.03;100270.84;10470121;28;20135;-63
2022/06/18 04:51:54;;;;;;;3.95;1.95;;;;;;;23.58;39.56;100272.31;10468634;28;20055;-63
2022/06/18 04:56:56;;;;;;;6.18;2.00;;;;;;;24.14;38.21;100266.94;10470003;28;20123;-62
2022/06/18 05:02:06;;;;;;;3.53;1.70;;;;;;;24.81;37.01;100264.75;10469393;28;20115;-62
2022/06/18 05:07:07;;;;;;;5.95;1.90;;;;;;;25.06;36.27;100259.06;10456048;28;20055;-63
2022/06/18 05:12:09;;;;;;;2.85;1.80;;;;;;;25.61;35.36;100253.50;10466292;28;20139;-63
2022/06/18 05:17:23;;;;;;;7.22;1.83;;;;;;;25.91;34.35;100249.06;10417053;28;20049;-63
2022/06/18 05:22:27;;;;;;;3.35;1.98;;;;;;;26.21;34.40;100249.97;10457844;28;20073;-63
2022/06/18 05:27:34;;;;;;;3.17;1.80;;;;;;;26.79;32.46;100251.81;10465665;28;20635;-63
2022/06/18 05:32:36;;;;;;;3.83;1.80;;;;;;;26.00;33.60;100247.19;10457913;28;20106;-63
2022/06/18 05:37:38;;;;;;;3.83;1.70;;;;;;;25.13;35.64;100232.44;10461165;28;20047;-63
2022/06/18 05:42:40;;;;;;;4.22;1.80;;;;;;;24.47;36.54;100238.28;10457730;28;20040;-63
2022/06/18 05:47:42;;;;;;;3.42;1.73;;;;;;;24.11;37.76;100232.56;10462825;28;20416;-63
2022/06/18 05:52:44;;;;;;;3.03;1.70;;;;;;;23.97;38.14;100217.19;10463883;28;20052;-63
2022/06/18 05:57:47;;;;;;;2.60;1.80;;;;;;;23.77;38.45;100215.06;10445738;28;20055;-63
2022/06/18 06:02:49;;;;;;;3.63;1.80;;;;;;;23.89;38.57;100213.72;10467087;28;20652;-63
2022/06/18 06:07:51;;;;;;;4.05;1.80;;;;;;;24.16;37.94;100210.66;10462886;28;20600;-63
2022/06/18 06:12:52;;;;;;;6.25;2.00;;;;;;;24.16;38.15;100208.81;10462044;28;20135;-63
2022/06/18 06:17:54;;;;;;;4.82;1.98;;;;;;;24.53;37.64;100204.69;10460596;28;20059;-62
2022/06/18 06:22:56;;;;;;;3.90;2.00;;;;;;;24.82;37.19;100207.53;10453233;28;20048;-62
2022/06/18 06:27:58;;;;;;;5.57;1.85;;;;;;;24.88;37.23;100199.66;10462711;28;20088;-62
2022/06/18 06:33:00;;;;;;;4.70;1.90;;;;;;;25.29;36.56;100200.19;10463784;28;20062;-63
2022/06/18 06:38:02;;;;;;;3.33;1.83;;;;;;;25.67;35.96;100193.84;10446284;28;20127;-63
2022/06/18 06:43:04;;;;;;;4.32;1.83;;;;;;;26.32;34.72;100198.56;10453217;28;20420;-63
2022/06/18 06:48:07;;;;;;;7.18;1.90;;;;;;;26.98;33.74;100201.00;10461640;28;20052;-62
2022/06/18 06:53:10;;;;;;;4.57;1.77;;;;;;;28.05;32.75;100195.38;10456141;28;20064;-63
2022/06/18 06:58:12;;;;;;;4.40;1.80;;;;;;;29.28;31.21;100182.56;10453686;28;20404;-63
2022/06/18 07:03:16;;;;;;;5.00;1.70;;;;;;;30.33;29.60;100177.94;10453609;28;20048;-64
2022/06/18 07:08:18;;;;;;;4.03;1.70;;;;;;;30.52;29.20;100178.88;10452409;28;20124;-61
2022/06/18 07:13:20;;;;;;;5.85;1.75;;;;;;;31.15;28.23;100175.22;10464274;28;20064;-63
2022/06/18 07:18:24;;;;;;;2.53;1.60;;;;;;;31.78;27.21;100162.44;10462900;28;20050;-63
2022/06/18 07:23:26;;;;;;;3.75;1.60;;;;;;;32.06;27.00;100156.56;10467037;28;20075;-63
2022/06/18 07:28:29;;;;;;;6.40;2.00;;;;;;;32.21;26.17;100147.00;10465277;28;20556;-63
2022/06/18 07:33:33;;;;;;;4.20;1.77;;;;;;;32.58;26.04;100142.38;10465012;28;20557;-64
2022/06/18 07:38:35;;;;;;;4.93;1.60;;;;;;;32.37;26.57;100148.28;10463657;28;20137;-64
2022/06/18 07:43:51;;;;;;;4.65;1.50;;;;;;;32.40;26.60;100146.97;10461322;28;20611;-63
2022/06/18 07:48:54;;;;;;;3.10;1.42;;;;;;;32.18;26.72;100133.94;10463774;28;20087;-64
2022/06/18 07:53:56;;;;;;;3.45;1.70;;;;;;;32.75;26.44;100120.91;10447820;28;20252;-63
2022/06/18 07:58:59;;;;;;;2.58;1.40;;;;;;;33.61;25.10;100123.91;10465806;28;20167;-63
2022/06/18 08:04:01;;;;;;;4.78;1.48;;;;;;;34.12;24.61;100110.41;10464319;28;20048;-63
2022/06/18 08:09:03;;;;;;;4.32;1.70;;;;;;;34.20;24.00;100103.78;10446723;28;20454;-63
2022/06/18 08:14:05;;;;;;;3.83;1.45;;;;;;;34.83;23.67;100093.59;10466073;28;20139;-64
2022/06/18 08:19:06;;;;;;;4.40;1.50;;;;;;;34.66;23.39;100087.28;10459182;28;20443;-64
2022/06/18 08:24:12;;;;;;;2.50;1.40;;;;;;;34.80;22.67;100088.63;10443566;28;20045;-70
2022/06/18 08:29:18;;;;;;;4.30;1.40;;;;;;;34.87;22.66;100078.47;10461118;28;20040;-70
2022/06/18 08:34:20;;;;;;;3.28;1.60;;;;;;;35.04;22.81;100073.84;10463267;28;20056;-71
2022/06/18 08:39:30;;;;;;;3.28;1.48;;;;;;;34.93;22.45;100068.50;10464719;28;20571;-69
2022/06/18 08:44:59;;;;;;;6.55;1.60;;;;;;;35.08;22.00;100071.47;10462465;28;20576;-70
2022/06/18 08:50:13;;;;;;;4.82;1.60;;;;;;;35.16;21.94;100060.97;10460780;28;20131;-70
2022/06/18 08:55:26;;;;;;;4.10;1.83;;;;;;;35.13;22.01;100066.94;10460713;28;20565;-70
2022/06/18 09:00:51;;;;;;;3.45;1.50;;;;;;;35.53;21.61;100060.47;10450408;28;20143;-70
2022/06/18 09:06:46;;;;;;;4.97;1.70;;;;;;;35.86;21.10;100054.94;10457904;28;20138;-71
2022/06/18 09:12:14;;;;;;;6.60;1.90;;;;;;;35.94;21.08;100047.16;10453818;28;20053;-71
2022/06/18 09:17:25;;;;;;;4.40;1.50;;;;;;;36.13;21.07;100043.03;10462833;28;20048;-71
2022/06/18 09:22:30;;;;;;;7.43;1.70;;;;;;;36.01;20.97;100036.91;10461662;28;20041;-71
2022/06/18 09:27:41;;;;;;;5.30;1.60;;;;;;;35.98;21.14;100025.69;10443264;28;20051;-71
2022/06/18 09:32:53;;;;;;;4.20;1.50;;;;;;;36.37;21.10;100021.78;10456628;28;20056;-70
2022/06/18 09:38:05;;;;;;;7.25;1.60;;;;;;;36.64;20.74;100019.03;10453683;28;20048;-71
2022/06/18 09:43:44;;;;;;;3.85;1.70;;;;;;;36.59;20.30;100013.53;10450397;28;20083;-71
2022/06/18 09:48:46;;;;;;;9.00;1.77;;;;;;;36.37;20.47;100008.16;10445980;28;20358;-70
2022/06/18 09:53:49;;;;;;;6.07;1.75;;;;;;;36.36;20.31;100003.81;10435004;28;20155;-69
2022/06/18 09:59:03;;;;;;;10.48;1.80;;;;;;;36.19;19.84;100009.34;10440556;28;20139;-70
2022/06/18 10:09:38;;;;;;;4.15;2.00;;;;;;;36.64;20.17;99999.97;10456530;28;20046;-70
2022/06/18 10:14:40;;;;;;;7.28;2.00;;;;;;;36.69;19.60;99995.41;10460793;28;20052;-70
2022/06/18 10:20:04;;;;;;;9.07;2.00;;;;;;;36.47;19.80;99994.63;10464261;28;20052;-70
2022/06/18 10:25:25;;;;;;;6.47;1.90;;;;;;;36.20;19.71;99986.44;10461906;28;20047;-70
2022/06/18 10:31:12;;;;;;;6.88;2.35;;;;;;;36.00;19.85;99980.81;10463084;28;20090;-70
2022/06/18 10:36:40;;;;;;;8.40;2.15;;;;;;;35.98;20.45;99972.06;10429365;28;20059;-70
2022/06/18 10:41:52;;;;;;;7.45;2.28;;;;;;;35.91;20.33;99973.34;10465143;28;20053;-70
2022/06/18 10:47:29;;;;;;;12.38;2.53;;;;;;;35.63;20.34;99968.09;10464342;28;20447;-70
2022/06/18 10:52:31;;;;;;;6.85;2.30;;;;;;;35.44;20.47;99948.56;10449161;28;20605;-70
2022/06/18 10:57:33;;;;;;;7.90;2.30;;;;;;;35.34;20.68;99941.06;10469549;28;20048;-70
2022/06/18 11:02:37;;;;;;;9.23;2.20;;;;;;;35.20;20.63;99944.41;10469559;28;20344;-70
2022/06/18 11:07:39;;;;;;;10.45;2.30;;;;;;;35.26;20.86;99936.03;10468046;28;20059;-69
2022/06/18 11:12:54;;;;;;;7.22;2.20;;;;;;;35.30;20.68;99942.63;10463242;28;20187;-68
2022/06/18 11:18:25;;;;;;;16.27;2.58;;;;;;;35.32;19.81;99926.91;10467628;28;20441;-69
2022/06/18 11:23:50;;;;;;;10.40;2.37;;;;;;;35.11;20.68;99921.44;10465717;28;20057;-67
2022/06/18 11:29:18;;;;;;;17.27;2.55;;;;;;;35.25;20.42;99912.66;10468827;28;20050;-67
2022/06/18 11:34:42;;;;;;;9.27;2.40;;;;;;;35.35;20.26;99920.97;10466953;28;20621;-68
2022/06/18 11:39:53;;;;;;;13.10;3.10;;;;;;;35.42;19.91;99895.47;10465351;28;20459;-69
2022/06/18 11:44:58;;;;;;;8.35;2.53;;;;;;;35.50;19.96;99892.31;10465141;28;20056;-68
2022/06/18 11:50:08;;;;;;;14.15;2.80;;;;;;;35.46;19.57;99893.91;10464159;28;20056;-69
2022/06/18 11:55:23;;;;;;;10.07;2.83;;;;;;;35.29;20.04;99883.06;10437922;28;20063;-68
2022/06/18 12:00:48;;;;;;;10.77;2.65;;;;;;;35.47;19.57;99871.88;10467506;28;20055;-69
2022/06/18 12:05:57;;;;;;;12.90;2.88;;;;;;;35.49;19.63;99867.00;10465731;28;20051;-68
2022/06/18 12:11:14;;;;;;;9.05;2.67;;;;;;;35.62;19.90;99868.50;10466387;28;20369;-68
2022/06/18 12:16:16;;;;;;;13.10;2.80;;;;;;;35.70;19.54;99849.00;10459247;28;20057;-68
2022/06/18 12:21:51;;;;;;;9.27;2.55;;;;;;;35.76;19.10;99839.78;10435600;28;20526;-68
2022/06/18 12:27:20;;;;;;;10.57;2.60;;;;;;;35.92;19.75;99842.44;10445706;28;20477;-68
2022/06/18 12:32:41;;;;;;;8.05;2.45;;;;;;;35.75;20.11;99836.25;10455384;28;20363;-68
2022/06/18 12:37:51;;;;;;;11.95;2.83;;;;;;;35.70;20.52;99821.78;10457519;28;20052;-68
2022/06/18 12:42:59;;;;;;;12.50;2.90;;;;;;;35.83;19.87;99826.84;10455739;28;20059;-68
2022/06/18 12:48:38;;;;;;;12.50;2.70;;;;;;;35.60;20.30;99810.81;10424746;28;20207;-68
2022/06/18 12:54:14;;;;;;;11.60;2.78;;;;;;;35.79;20.33;99804.78;10454655;28;20056;-68
2022/06/18 12:59:29;;;;;;;8.90;2.60;;;;;;;35.81;20.41;99804.50;10421987;28;20121;-69
2022/06/18 13:04:37;;;;;;;10.75;2.78;;;;;;;35.87;20.44;99800.75;10425876;28;20780;-69
2022/06/18 13:09:48;;;;;;;;;;;;;;;35.56;21.11;99798.78;10438929;28;20132;-67
2022/06/18 13:15:10;;;;;;;14.07;2.80;;;;;;;35.95;20.27;99786.66;10432686;28;19931;-68
2022/06/18 13:20:17;;;;;;;8.52;2.78;;;;;;;35.86;20.29;99778.16;10448008;28;20056;-68
2022/06/18 13:30:52;;;;;;;9.68;2.80;;;;;;;36.18;19.63;99765.31;10456028;28;20428;-67
2022/06/18 13:36:07;;;;;;;8.35;2.78;;;;;;;36.30;19.63;99748.81;10455601;28;20056;-68
2022/06/18 13:41:14;;;;;;;12.27;2.63;;;;;;;36.30;19.22;99742.53;10420381;28;20056;-66
2022/06/18 13:46:37;;;;;;;11.15;3.08;;;;;;;36.27;18.86;99738.44;10446357;28;20201;-67
2022/06/18 13:51:41;;;;;;;15.93;2.97;;;;;;;36.18;18.83;99726.34;10450394;28;20048;-68
2022/06/18 13:57:05;;;;;;;15.48;3.58;;;;;;;35.95;19.04;99713.16;10454969;28;20102;-68
2022/06/18 14:02:31;;;;;;;12.35;2.88;;;;;;;35.94;18.86;99708.78;10456281;28;20131;-68
2022/06/18 14:07:39;;;;;;;13.45;2.80;;;;;;;35.96;18.70;99701.19;10462156;28;20538;-68
2022/06/18 14:12:46;;;;;;;;;;;;;;;35.90;18.61;99689.44;10466983;28;20068;-68
2022/06/18 14:17:56;;;;;;;18.63;3.30;;;;;;;36.36;18.47;99679.66;10461827;28;20005;-66
2022/06/18 14:23:07;;;;;;;12.30;3.05;;;;;;;36.09;18.29;99681.66;10466132;28;20135;-67
2022/06/18 14:28:29;;;;;;;15.15;3.40;;;;;;;36.27;18.11;99677.69;10463644;28;20477;-68
2022/06/18 14:34:00;;;;;;;12.77;2.90;;;;;;;36.23;17.72;99663.81;10466698;28;20092;-68
2022/06/18 14:39:14;;;;;;;13.93;3.47;;;;;;;36.47;18.03;99656.00;10466483;28;20149;-68
2022/06/18 14:44:24;;;;;;;13.77;3.63;;;;;;;36.55;18.84;99655.47;10466353;28;20049;-66
2022/06/18 14:49:50;;;;;;;10.98;3.20;;;;;;;36.66;17.29;99640.81;10463203;28;20500;-68
2022/06/18 14:55:17;;;;;;;16.55;3.25;;;;;;;36.44;17.56;99645.63;10463978;28;20060;-67
2022/06/18 15:00:25;;;;;;;18.42;3.22;;;;;;;36.55;17.78;99623.59;10464618;28;20049;-68
2022/06/18 15:05:31;;;;;;;14.98;3.80;;;;;;;36.73;17.48;99620.41;10464681;28;20040;-67
2022/06/18 15:10:34;;;;;;;14.05;3.42;;;;;;;36.80;17.66;99615.53;10465134;28;20106;-67
2022/06/18 15:15:52;;;;;;;17.13;3.30;;;;;;;36.66;18.15;99611.69;10466408;28;20143;-68
2022/06/18 15:20:54;;;;;;;13.93;3.40;;;;;;;36.60;17.51;99607.28;10464954;28;21020;-68
2022/06/18 15:25:56;;;;;;;19.90;3.35;;;;;;;36.57;17.21;99604.25;10467324;28;20084;-67
2022/06/18 15:31:29;;;;;;;22.80;3.55;;;;;;;36.45;17.50;99590.06;10471173;28;20343;-68
2022/06/18 15:36:33;;;;;;;15.68;3.22;;;;;;;36.45;17.38;99590.88;10470800;28;20072;-68
2022/06/18 15:41:42;;;;;;;20.92;3.95;;;;;;;36.39;17.44;99588.41;10469584;28;20050;-68
2022/06/18 15:46:54;;;;;;;18.95;3.97;;;;;;;36.43;17.71;99581.34;10469857;28;20052;-67
2022/06/18 15:51:56;;;;;;;18.38;3.70;;;;;;;36.56;17.60;99568.03;10468948;28;20065;-68
2022/06/18 15:57:20;;;;;;;19.00;3.83;;;;;;;36.55;17.74;99560.09;10446922;28;20586;-68
2022/06/18 16:02:25;;;;;;;20.02;3.42;;;;;;;36.49;17.63;99558.47;10468455;28;20401;-68
2022/06/18 16:07:27;;;;;;;16.27;3.70;;;;;;;36.45;17.85;99552.75;10451538;28;20048;-68
2022/06/18 16:12:39;;;;;;;20.63;3.80;;;;;;;36.43;17.75;99554.91;10468066;28;20084;-68
2022/06/18 16:17:43;;;;;;;21.80;4.05;;;;;;;36.45;17.59;99546.47;10460214;28;20117;-68
2022/06/18 16:22:57;;;;;;;18.13;3.50;;;;;;;36.33;17.50;99540.44;10463706;28;20625;-69
2022/06/18 16:28:04;;;;;;;20.10;3.63;;;;;;;36.28;17.66;99538.56;10469696;28;20479;-69
2022/06/18 16:33:17;;;;;;;18.90;3.72;;;;;;;36.22;18.27;99542.31;10467482;28;20049;-68
2022/06/18 16:38:32;;;;;;;15.38;3.05;;;;;;;36.01;18.02;99541.44;10466824;28;20816;-69
2022/06/18 16:43:34;;;;;;;25.25;4.15;;;;;;;35.83;18.33;99543.81;10455417;28;20048;-69
2022/06/18 16:48:37;;;;;;;19.98;4.43;;;;;;;35.90;18.44;99533.47;10465170;28;20159;-69
2022/06/18 16:53:45;;;;;;;18.13;4.18;;;;;;;35.84;18.55;99535.38;10461346;28;20186;-68
2022/06/18 16:58:46;;;;;;;20.70;3.95;;;;;;;35.73;18.88;99524.69;10467891;28;20057;-68
2022/06/18 17:03:48;;;;;;;16.55;3.90;;;;;;;35.85;19.46;99519.84;10467737;28;20044;-68
2022/06/18 17:08:50;;;;;;;18.25;4.05;;;;;;;35.67;19.87;99510.22;10460061;28;20436;-68
2022/06/18 17:13:52;;;;;;;19.27;3.80;;;;;;;35.49;19.96;99515.31;10456745;28;20048;-68
2022/06/18 17:18:55;;;;;;;19.60;3.80;;;;;;;35.38;20.29;99508.97;10461634;28;20044;-68
2022/06/18 17:34:43;;;;;;;18.85;4.50;;;;;;;34.98;21.55;99486.94;10467529;28;20224;-67
2022/06/18 17:39:45;;;;;;;20.95;3.72;;;;;;;34.87;21.96;99487.94;10465583;28;20123;-69
2022/06/18 17:44:48;;;;;;;19.10;3.80;;;;;;;34.72;22.76;99482.34;10466762;28;20471;-68
2022/06/18 17:49:49;;;;;;;20.45;4.22;;;;;;;34.60;23.13;99485.22;10465221;28;20079;-69
2022/06/18 17:54:51;;;;;;;18.65;4.13;;;;;;;34.39;24.05;99475.22;10459847;28;20141;-67
2022/06/18 17:59:53;;;;;;;21.40;4.57;;;;;;;34.12;24.47;99485.28;10460080;28;20510;-68
2022/06/18 18:04:55;;;;;;;21.42;3.88;;;;;;;33.91;24.81;99476.06;10462984;28;20739;-68
2022/06/18 18:09:58;;;;;;;17.85;4.13;;;;;;;33.67;25.39;99470.09;10464830;28;20511;-68
2022/06/18 18:15:07;;;;;;;20.95;4.28;;;;;;;33.43;26.19;99465.13;10465446;28;20160;-68
2022/06/18 18:20:12;;;;;;;22.65;4.43;;;;;;;33.10;27.08;99468.72;10463982;28;20041;-68
2022/06/18 18:25:15;;;;;;;15.88;3.92;;;;;;;32.66;27.61;99472.31;10462228;28;20076;-68
2022/06/18 18:30:18;;;;;;;15.05;4.00;;;;;;;32.29;28.06;99465.69;10423830;28;20055;-68
2022/06/18 18:35:20;;;;;;;20.20;4.18;;;;;;;31.93;28.44;99470.41;10460143;28;20269;-68
2022/06/18 18:40:21;;;;;;;16.27;3.65;;;;;;;31.69;28.79;99460.72;10418881;28;20253;-68
2022/06/18 18:45:23;;;;;;;20.88;3.80;;;;;;;31.42;29.28;99457.69;10430544;28;20048;-69
2022/06/18 18:50:26;;;;;;;17.85;4.18;;;;;;;31.16;29.43;99449.25;10463885;28;20505;-68
2022/06/18 18:55:30;;;;;;;14.25;3.53;;;;;;;31.00;29.57;99449.97;10463519;28;20060;-69
2022/06/18 19:00:32;;;;;;;17.88;3.97;;;;;;;30.77;30.20;99444.53;10455244;28;20048;-68
2022/06/18 19:05:34;;;;;;;15.98;3.97;;;;;;;30.60;30.21;99444.38;10454331;28;20051;-67
2022/06/18 19:10:36;;;;;;;15.07;3.83;;;;;;;30.35;29.68;99439.16;10471327;28;20134;-68
2022/06/18 19:15:42;;;;;;;18.27;4.18;;;;;;;29.95;31.39;99439.97;10470649;28;20468;-63
2022/06/18 19:20:44;;;;;;;19.02;4.28;;;;;;;29.74;31.55;99433.16;10467419;28;20506;-63
2022/06/18 19:25:48;;;;;;;22.15;4.70;;;;;;;29.44;32.19;99433.09;10465149;28;20116;-63
2022/06/18 19:30:53;;;;;;;21.45;4.55;;;;;;;29.00;32.96;99423.41;10465274;28;20048;-64
2022/06/18 19:35:56;;;;;;;20.65;4.97;;;;;;;28.84;33.46;99418.59;10469493;28;20775;-63
2022/06/18 19:40:58;;;;;;;17.63;4.05;;;;;;;28.53;34.16;99418.63;10470194;28;20088;-63
2022/06/18 19:46:00;;;;;;;19.40;4.43;;;;;;;28.34;34.49;99426.84;10470147;28;20469;-64
2022/06/18 19:51:03;;;;;;;20.02;4.13;;;;;;;28.15;34.88;99421.38;10469326;28;20051;-63
2022/06/18 19:56:05;;;;;;;20.02;4.10;;;;;;;27.94;35.13;99423.56;10469205;28;20146;-64
2022/06/18 20:01:08;;;;;;;16.17;4.53;;;;;;;27.82;36.13;99428.78;10469664;28;20056;-62
2022/06/18 20:06:10;;;;;;;18.02;3.97;;;;;;;27.69;36.95;99420.75;10461508;28;20054;-63
2022/06/18 20:11:12;;;;;;;19.23;3.92;;;;;;;27.58;37.47;99423.28;10469614;28;20131;-62
2022/06/18 20:16:16;;;;;;;12.90;3.38;;;;;;;27.36;38.15;99415.50;10468790;28;20052;-63
2022/06/18 20:21:18;;;;;;;20.63;4.32;;;;;;;26.80;38.98;99414.38;10469018;28;20044;-63
2022/06/18 20:26:22;;;;;;;21.70;4.60;;;;;;;26.48;39.73;99421.38;10468009;28;20589;-63
2022/06/18 20:31:27;;;;;;;18.27;4.90;;;;;;;26.37;40.13;99413.09;10437838;28;20041;-62
2022/06/18 20:36:29;;;;;;;13.15;4.32;;;;;;;26.27;40.40;99410.00;10449688;28;20064;-63
2022/06/18 20:41:32;;;;;;;19.00;4.15;;;;;;;26.16;40.52;99405.28;10468635;28;20041;-63
2022/06/18 20:46:33;;;;;;;17.80;4.95;;;;;;;26.10;40.35;99398.03;10467948;28;20128;-62
2022/06/18 20:51:39;;;;;;;141.43;94.10;;;;;;;25.94;40.38;99393.84;10446415;28;20048;-62
2022/06/18 21:02:01;;;;;;;51.67;31.88;;;;;;;25.56;40.98;99387.34;10462556;28;20136;-63
2022/06/18 21:07:03;;;;;;;24.98;8.82;;;;;;;25.54;41.56;99378.69;10466583;28;20044;-63
2022/06/18 21:12:06;;;;;;;22.23;7.18;;;;;;;25.46;41.95;99371.66;10449423;28;20674;-63
2022/06/18 21:17:10;;;;;;;16.42;4.28;;;;;;;25.40;41.84;99368.97;10468491;28;20063;-63
2022/06/18 21:22:14;;;;;;;16.60;4.68;;;;;;;25.35;42.35;99371.41;10466971;28;20231;-63
2022/06/18 21:27:19;;;;;;;20.30;4.28;;;;;;;25.21;42.86;99370.50;10465053;28;20216;-63
2022/06/18 21:37:44;;;;;;;18.60;4.22;;;;;;;25.02;43.16;99349.81;10465794;28;20488;-63
2022/06/18 21:42:48;;;;;;;18.67;4.68;;;;;;;24.79;43.65;99341.25;10447037;28;20480;-63
2022/06/18 21:47:50;;;;;;;22.80;4.60;;;;;;;24.24;44.43;99329.53;10454806;28;20120;-63
2022/06/18 21:52:52;;;;;;;18.98;4.20;;;;;;;24.18;44.39;99332.94;10463030;28;20071;-63
2022/06/18 21:57:57;;;;;;;16.38;4.03;;;;;;;24.32;44.27;99320.53;10464131;28;20194;-63
2022/06/18 22:03:00;;;;;;;19.08;4.15;;;;;;;24.25;44.21;99312.47;10460625;28;20124;-63
2022/06/18 22:08:03;;;;;;;18.48;4.88;;;;;;;24.20;44.33;99309.56;10463296;28;20066;-63
2022/06/18 22:18:28;;;;;;;17.15;4.50;;;;;;;24.11;44.37;99304.53;10466154;28;20072;-62
2022/06/18 22:23:30;;;;;;;17.35;5.22;;;;;;;23.73;45.16;99308.47;10466380;28;20407;-62
2022/06/18 22:28:33;;;;;;;18.13;4.40;;;;;;;23.85;45.32;99309.63;10465509;28;20128;-62
2022/06/18 22:33:36;;;;;;;17.65;4.63;;;;;;;23.83;45.23;99295.63;10464937;28;20132;-62
2022/06/18 22:38:37;;;;;;;17.73;5.00;;;;;;;23.78;45.01;99298.06;10473062;28;20048;-62
2022/06/18 22:43:39;;;;;;;17.73;4.68;;;;;;;23.64;45.26;99289.06;10473788;28;20047;-62
2022/06/18 22:48:41;;;;;;;14.85;4.47;;;;;;;23.45;45.42;99287.06;10474348;28;20060;-62
2022/06/18 22:53:42;;;;;;;17.98;4.68;;;;;;;23.16;45.86;99276.41;10474244;28;20056;-62
2022/06/18 22:58:45;;;;;;;22.80;4.57;;;;;;;22.81;46.68;99278.03;10472710;28;20044;-62
2022/06/18 23:03:47;;;;;;;16.60;4.65;;;;;;;22.79;46.69;99265.91;10454903;28;20987;-62
2022/06/18 23:08:55;;;;;;;19.70;4.50;;;;;;;22.67;47.22;99265.50;10473237;28;20143;-62
2022/06/18 23:13:59;;;;;;;16.90;5.23;;;;;;;22.66;47.20;99264.69;10473958;28;20194;-62
2022/06/18 23:19:02;;;;;;;18.98;4.30;;;;;;;22.67;47.24;99246.84;10472133;28;20428;-63
2022/06/18 23:24:04;;;;;;;14.18;4.75;;;;;;;22.73;47.39;99239.94;10472360;28;20032;-62
2022/06/18 23:29:06;;;;;;;17.23;4.40;;;;;;;22.66;47.61;99238.03;10472149;28;20453;-62
2022/06/18 23:34:14;;;;;;;22.20;5.07;;;;;;;22.49;48.06;99231.25;10471897;28;20134;-62
2022/06/18 23:39:16;;;;;;;14.48;4.30;;;;;;;22.06;48.89;99223.22;10471673;28;20405;-62
2022/06/18 23:44:20;;;;;;;21.05;4.30;;;;;;;21.82;49.52;99226.94;10472517;28;20131;-63
2022/06/18 23:49:22;;;;;;;16.92;4.72;;;;;;;21.77;49.83;99239.94;10470523;28;20098;-62
2022/06/18 23:54:28;;;;;;;20.27;4.32;;;;;;;21.64;49.67;99239.72;10469323;28;20424;-62
2022/06/18 23:59:33;;;;;;;18.13;4.53;;;;;;;21.85;49.34;99224.72;10470484;28;20484;-62
